sensor_id;sensor_type;location;lat;lon;timestamp;P1;durP1;ratioP1;P2;durP2;ratioP2
20535;SDS011;10426;49.420;8.390;2022-08-19T00:00:21;14.15;;;12.68;;
20535;SDS011;10426;49.420;8.390;2022-08-19T00:02:47;13.70;;;12.30;;
20535;SDS011;10426;49.420;8.390;2022-08-19T00:05:15;13.65;;;12.35;;
20535;SDS011;10426;49.420;8.390;2022-08-19T00:07:42;13.65;;;12.32;;
20535;SDS011;10426;49.420;8.390;2022-08-19T00:10:10;14.15;;;12.65;;
20535;SDS011;10426;49.420;8.390;2022-08-19T00:12:37;14.30;;;12.80;;
20535;SDS011;10426;49.420;8.390;2022-08-19T00:15:04;14.88;;;13.38;;
20535;SDS011;10426;49.420;8.390;2022-08-19T00:17:31;14.55;;;13.05;;
20535;SDS011;10426;49.420;8.390;2022-08-19T00:19:58;15.18;;;13.25;;
20535;SDS011;10426;49.420;8.390;2022-08-19T00:22:26;14.32;;;12.82;;
20535;SDS011;10426;49.420;8.390;2022-08-19T00:24:53;13.43;;;12.02;;
20535;SDS011;10426;49.420;8.390;2022-08-19T00:27:20;14.25;;;12.75;;
20535;SDS011;10426;49.420;8.390;2022-08-19T00:29:47;13.80;;;12.40;;
20535;SDS011;10426;49.420;8.390;2022-08-19T00:32:14;14.05;;;12.65;;
20535;SDS011;10426;49.420;8.390;2022-08-19T00:34:41;14.02;;;12.63;;
20535;SDS011;10426;49.420;8.390;2022-08-19T00:37:07;14.33;;;12.97;;
20535;SDS011;10426;49.420;8.390;2022-08-19T00:39:36;15.10;;;13.52;;
20535;SDS011;10426;49.420;8.390;2022-08-19T00:42:03;14.50;;;13.00;;
20535;SDS011;10426;49.420;8.390;2022-08-19T00:44:29;14.63;;;13.13;;
20535;SDS011;10426;49.420;8.390;2022-08-19T00:46:57;14.20;;;12.63;;
20535;SDS011;10426;49.420;8.390;2022-08-19T00:49:26;13.52;;;12.13;;
20535;SDS011;10426;49.420;8.390;2022-08-19T00:51:57;13.88;;;12.48;;
20535;SDS011;10426;49.420;8.390;2022-08-19T00:54:25;14.13;;;12.73;;
20535;SDS011;10426;49.420;8.390;2022-08-19T00:56:53;14.20;;;12.73;;
20535;SDS011;10426;49.420;8.390;2022-08-19T00:59:19;15.07;;;12.70;;
20535;SDS011;10426;49.420;8.390;2022-08-19T01:01:47;13.95;;;12.55;;
20535;SDS011;10426;49.420;8.390;2022-08-19T01:04:14;13.85;;;12.45;;
20535;SDS011;10426;49.420;8.390;2022-08-19T01:06:41;14.50;;;13.00;;
20535;SDS011;10426;49.420;8.390;2022-08-19T01:09:08;13.90;;;12.40;;
20535;SDS011;10426;49.420;8.390;2022-08-19T01:11:36;13.40;;;12.10;;
20535;SDS011;10426;49.420;8.390;2022-08-19T01:14:05;14.60;;;13.10;;
20535;SDS011;10426;49.420;8.390;2022-08-19T01:16:33;14.38;;;12.60;;
20535;SDS011;10426;49.420;8.390;2022-08-19T01:19:00;14.15;;;12.65;;
20535;SDS011;10426;49.420;8.390;2022-08-19T01:21:28;13.98;;;12.57;;
20535;SDS011;10426;49.420;8.390;2022-08-19T01:23:57;13.80;;;12.45;;
20535;SDS011;10426;49.420;8.390;2022-08-19T01:26:24;14.03;;;12.70;;
20535;SDS011;10426;49.420;8.390;2022-08-19T01:28:52;13.80;;;12.43;;
20535;SDS011;10426;49.420;8.390;2022-08-19T01:31:20;13.88;;;12.48;;
20535;SDS011;10426;49.420;8.390;2022-08-19T01:33:47;13.93;;;12.40;;
20535;SDS011;10426;49.420;8.390;2022-08-19T01:36:16;15.25;;;13.65;;
20535;SDS011;10426;49.420;8.390;2022-08-19T01:38:47;13.55;;;12.15;;
20535;SDS011;10426;49.420;8.390;2022-08-19T01:41:16;13.35;;;12.02;;
20535;SDS011;10426;49.420;8.390;2022-08-19T01:43:43;13.70;;;12.30;;
20535;SDS011;10426;49.420;8.390;2022-08-19T01:46:10;13.85;;;12.43;;
20535;SDS011;10426;49.420;8.390;2022-08-19T01:48:39;13.50;;;12.10;;
20535;SDS011;10426;49.420;8.390;2022-08-19T01:51:06;13.63;;;12.30;;
20535;SDS011;10426;49.420;8.390;2022-08-19T01:53:33;13.93;;;12.38;;
20535;SDS011;10426;49.420;8.390;2022-08-19T01:56:00;14.63;;;13.13;;
20535;SDS011;10426;49.420;8.390;2022-08-19T01:58:29;13.70;;;12.35;;
20535;SDS011;10426;49.420;8.390;2022-08-19T02:00:56;14.52;;;13.02;;
20535;SDS011;10426;49.420;8.390;2022-08-19T02:03:23;12.73;;;11.48;;
20535;SDS011;10426;49.420;8.390;2022-08-19T02:05:53;14.85;;;13.30;;
20535;SDS011;10426;49.420;8.390;2022-08-19T02:08:20;14.35;;;12.85;;
20535;SDS011;10426;49.420;8.390;2022-08-19T02:10:47;14.20;;;12.70;;
20535;SDS011;10426;49.420;8.390;2022-08-19T02:13:15;15.27;;;12.70;;
20535;SDS011;10426;49.420;8.390;2022-08-19T02:15:43;14.27;;;12.77;;
20535;SDS011;10426;49.420;8.390;2022-08-19T02:18:10;13.77;;;12.45;;
20535;SDS011;10426;49.420;8.390;2022-08-19T02:20:36;14.20;;;12.80;;
20535;SDS011;10426;49.420;8.390;2022-08-19T02:23:03;14.10;;;12.35;;
20535;SDS011;10426;49.420;8.390;2022-08-19T02:25:30;13.77;;;12.48;;
20535;SDS011;10426;49.420;8.390;2022-08-19T02:27:57;13.80;;;12.40;;
20535;SDS011;10426;49.420;8.390;2022-08-19T02:30:24;14.18;;;12.65;;
20535;SDS011;10426;49.420;8.390;2022-08-19T02:32:52;14.10;;;12.60;;
20535;SDS011;10426;49.420;8.390;2022-08-19T02:35:19;13.97;;;12.67;;
20535;SDS011;10426;49.420;8.390;2022-08-19T02:37:46;14.10;;;12.70;;
20535;SDS011;10426;49.420;8.390;2022-08-19T02:40:30;13.95;;;12.55;;
20535;SDS011;10426;49.420;8.390;2022-08-19T02:42:59;14.45;;;12.93;;
20535;SDS011;10426;49.420;8.390;2022-08-19T02:45:26;13.98;;;12.60;;
20535;SDS011;10426;49.420;8.390;2022-08-19T02:47:54;13.75;;;12.45;;
20535;SDS011;10426;49.420;8.390;2022-08-19T02:50:22;14.67;;;13.17;;
20535;SDS011;10426;49.420;8.390;2022-08-19T02:52:48;13.93;;;12.52;;
20535;SDS011;10426;49.420;8.390;2022-08-19T02:55:15;13.73;;;12.43;;
20535;SDS011;10426;49.420;8.390;2022-08-19T02:57:42;14.65;;;12.90;;
20535;SDS011;10426;49.420;8.390;2022-08-19T03:00:08;15.13;;;13.07;;
20535;SDS011;10426;49.420;8.390;2022-08-19T03:02:37;14.00;;;12.57;;
20535;SDS011;10426;49.420;8.390;2022-08-19T03:05:06;13.80;;;12.40;;
20535;SDS011;10426;49.420;8.390;2022-08-19T03:07:33;14.38;;;12.93;;
20535;SDS011;10426;49.420;8.390;2022-08-19T03:09:59;13.90;;;12.60;;
20535;SDS011;10426;49.420;8.390;2022-08-19T03:12:26;15.10;;;13.40;;
20535;SDS011;10426;49.420;8.390;2022-08-19T03:14:53;15.27;;;13.77;;
20535;SDS011;10426;49.420;8.390;2022-08-19T03:17:20;15.27;;;13.68;;
20535;SDS011;10426;49.420;8.390;2022-08-19T03:19:46;14.77;;;13.27;;
20535;SDS011;10426;49.420;8.390;2022-08-19T03:22:14;15.25;;;13.05;;
20535;SDS011;10426;49.420;8.390;2022-08-19T03:24:41;14.50;;;13.00;;
20535;SDS011;10426;49.420;8.390;2022-08-19T03:27:08;14.55;;;12.85;;
20535;SDS011;10426;49.420;8.390;2022-08-19T03:29:36;14.70;;;13.27;;
20535;SDS011;10426;49.420;8.390;2022-08-19T03:32:05;14.45;;;13.05;;
20535;SDS011;10426;49.420;8.390;2022-08-19T03:34:32;14.45;;;12.98;;
20535;SDS011;10426;49.420;8.390;2022-08-19T03:37:03;14.10;;;12.60;;
20535;SDS011;10426;49.420;8.390;2022-08-19T03:39:31;14.70;;;13.20;;
20535;SDS011;10426;49.420;8.390;2022-08-19T03:41:58;13.50;;;12.20;;
20535;SDS011;10426;49.420;8.390;2022-08-19T03:44:25;14.60;;;13.10;;
20535;SDS011;10426;49.420;8.390;2022-08-19T03:46:52;13.48;;;12.07;;
20535;SDS011;10426;49.420;8.390;2022-08-19T03:49:20;14.00;;;12.70;;
20535;SDS011;10426;49.420;8.390;2022-08-19T03:51:49;13.95;;;12.38;;
20535;SDS011;10426;49.420;8.390;2022-08-19T03:54:17;13.75;;;12.40;;
20535;SDS011;10426;49.420;8.390;2022-08-19T03:56:45;13.40;;;11.80;;
20535;SDS011;10426;49.420;8.390;2022-08-19T03:59:14;14.15;;;11.90;;
20535;SDS011;10426;49.420;8.390;2022-08-19T04:01:41;12.73;;;11.50;;
20535;SDS011;10426;49.420;8.390;2022-08-19T04:04:07;13.63;;;12.23;;
20535;SDS011;10426;49.420;8.390;2022-08-19T04:06:35;12.85;;;11.55;;
20535;SDS011;10426;49.420;8.390;2022-08-19T04:09:03;12.75;;;11.55;;
20535;SDS011;10426;49.420;8.390;2022-08-19T04:11:30;13.13;;;11.73;;
20535;SDS011;10426;49.420;8.390;2022-08-19T04:13:59;13.13;;;11.53;;
20535;SDS011;10426;49.420;8.390;2022-08-19T04:16:26;12.35;;;11.15;;
20535;SDS011;10426;49.420;8.390;2022-08-19T04:18:54;12.73;;;11.53;;
20535;SDS011;10426;49.420;8.390;2022-08-19T04:21:22;12.43;;;11.32;;
20535;SDS011;10426;49.420;8.390;2022-08-19T04:23:48;13.25;;;11.85;;
20535;SDS011;10426;49.420;8.390;2022-08-19T04:26:15;12.10;;;10.90;;
20535;SDS011;10426;49.420;8.390;2022-08-19T04:28:43;12.85;;;11.55;;
20535;SDS011;10426;49.420;8.390;2022-08-19T04:31:14;13.07;;;11.70;;
20535;SDS011;10426;49.420;8.390;2022-08-19T04:33:40;13.43;;;11.38;;
20535;SDS011;10426;49.420;8.390;2022-08-19T04:36:07;13.20;;;11.82;;
20535;SDS011;10426;49.420;8.390;2022-08-19T04:38:35;12.13;;;10.93;;
20535;SDS011;10426;49.420;8.390;2022-08-19T04:41:02;12.38;;;11.18;;
20535;SDS011;10426;49.420;8.390;2022-08-19T04:43:46;12.82;;;11.40;;
20535;SDS011;10426;49.420;8.390;2022-08-19T04:46:15;12.55;;;11.30;;
20535;SDS011;10426;49.420;8.390;2022-08-19T04:48:42;12.63;;;11.33;;
20535;SDS011;10426;49.420;8.390;2022-08-19T04:51:10;12.55;;;11.30;;
20535;SDS011;10426;49.420;8.390;2022-08-19T04:53:39;13.05;;;11.50;;
20535;SDS011;10426;49.420;8.390;2022-08-19T04:56:07;12.73;;;11.43;;
20535;SDS011;10426;49.420;8.390;2022-08-19T04:58:34;12.27;;;11.18;;
20535;SDS011;10426;49.420;8.390;2022-08-19T05:01:00;12.98;;;11.68;;
20535;SDS011;10426;49.420;8.390;2022-08-19T05:03:28;12.45;;;11.23;;
20535;SDS011;10426;49.420;8.390;2022-08-19T05:05:58;12.20;;;11.10;;
20535;SDS011;10426;49.420;8.390;2022-08-19T05:08:31;12.40;;;11.15;;
20535;SDS011;10426;49.420;8.390;2022-08-19T05:10:59;12.27;;;10.98;;
20535;SDS011;10426;49.420;8.390;2022-08-19T05:13:26;11.95;;;10.77;;
20535;SDS011;10426;49.420;8.390;2022-08-19T05:15:53;11.63;;;10.52;;
20535;SDS011;10426;49.420;8.390;2022-08-19T05:18:20;11.30;;;10.23;;
20535;SDS011;10426;49.420;8.390;2022-08-19T05:21:06;12.20;;;10.93;;
20535;SDS011;10426;49.420;8.390;2022-08-19T05:23:51;11.77;;;10.60;;
20535;SDS011;10426;49.420;8.390;2022-08-19T05:26:17;11.43;;;10.35;;
20535;SDS011;10426;49.420;8.390;2022-08-19T05:28:44;11.80;;;10.60;;
20535;SDS011;10426;49.420;8.390;2022-08-19T05:31:11;11.63;;;10.63;;
20535;SDS011;10426;49.420;8.390;2022-08-19T05:33:38;11.23;;;10.20;;
20535;SDS011;10426;49.420;8.390;2022-08-19T05:36:05;10.52;;;9.52;;
20535;SDS011;10426;49.420;8.390;2022-08-19T05:38:34;12.17;;;10.37;;
20535;SDS011;10426;49.420;8.390;2022-08-19T05:41:05;11.40;;;10.23;;
20535;SDS011;10426;49.420;8.390;2022-08-19T05:43:32;10.73;;;9.65;;
20535;SDS011;10426;49.420;8.390;2022-08-19T05:45:59;10.50;;;9.50;;
20535;SDS011;10426;49.420;8.390;2022-08-19T05:48:26;11.27;;;10.13;;
20535;SDS011;10426;49.420;8.390;2022-08-19T05:50:53;10.45;;;9.45;;
20535;SDS011;10426;49.420;8.390;2022-08-19T05:53:19;11.05;;;9.90;;
20535;SDS011;10426;49.420;8.390;2022-08-19T05:55:47;11.23;;;10.05;;
20535;SDS011;10426;49.420;8.390;2022-08-19T05:58:14;10.80;;;9.70;;
20535;SDS011;10426;49.420;8.390;2022-08-19T06:00:42;10.68;;;9.60;;
20535;SDS011;10426;49.420;8.390;2022-08-19T06:03:08;10.57;;;9.65;;
20535;SDS011;10426;49.420;8.390;2022-08-19T06:05:35;10.80;;;9.57;;
20535;SDS011;10426;49.420;8.390;2022-08-19T06:08:02;9.80;;;8.90;;
20535;SDS011;10426;49.420;8.390;2022-08-19T06:10:30;9.40;;;8.60;;
20535;SDS011;10426;49.420;8.390;2022-08-19T06:12:58;9.98;;;9.07;;
20535;SDS011;10426;49.420;8.390;2022-08-19T06:15:25;10.07;;;9.07;;
20535;SDS011;10426;49.420;8.390;2022-08-19T06:17:52;9.38;;;8.57;;
20535;SDS011;10426;49.420;8.390;2022-08-19T06:20:19;9.77;;;8.82;;
20535;SDS011;10426;49.420;8.390;2022-08-19T06:22:48;9.20;;;8.30;;
20535;SDS011;10426;49.420;8.390;2022-08-19T06:25:18;9.68;;;8.65;;
20535;SDS011;10426;49.420;8.390;2022-08-19T06:27:44;9.27;;;8.40;;
20535;SDS011;10426;49.420;8.390;2022-08-19T06:30:13;9.48;;;8.57;;
20535;SDS011;10426;49.420;8.390;2022-08-19T06:32:40;8.80;;;8.07;;
20535;SDS011;10426;49.420;8.390;2022-08-19T06:35:07;8.98;;;8.07;;
20535;SDS011;10426;49.420;8.390;2022-08-19T06:37:34;9.90;;;8.90;;
20535;SDS011;10426;49.420;8.390;2022-08-19T06:40:00;8.77;;;7.97;;
20535;SDS011;10426;49.420;8.390;2022-08-19T06:42:27;10.40;;;8.52;;
20535;SDS011;10426;49.420;8.390;2022-08-19T06:44:54;8.47;;;7.77;;
20535;SDS011;10426;49.420;8.390;2022-08-19T06:47:22;8.93;;;7.97;;
20535;SDS011;10426;49.420;8.390;2022-08-19T06:49:49;9.32;;;8.30;;
20535;SDS011;10426;49.420;8.390;2022-08-19T06:52:15;8.70;;;7.90;;
20535;SDS011;10426;49.420;8.390;2022-08-19T06:54:42;9.60;;;8.17;;
20535;SDS011;10426;49.420;8.390;2022-08-19T06:57:09;8.30;;;7.57;;
20535;SDS011;10426;49.420;8.390;2022-08-19T06:59:40;8.65;;;7.85;;
20535;SDS011;10426;49.420;8.390;2022-08-19T07:02:07;8.10;;;7.30;;
20535;SDS011;10426;49.420;8.390;2022-08-19T07:04:35;9.75;;;6.88;;
20535;SDS011;10426;49.420;8.390;2022-08-19T07:07:04;8.50;;;7.50;;
20535;SDS011;10426;49.420;8.390;2022-08-19T07:09:33;8.52;;;7.72;;
20535;SDS011;10426;49.420;8.390;2022-08-19T07:12:03;8.32;;;7.55;;
20535;SDS011;10426;49.420;8.390;2022-08-19T07:14:29;8.27;;;7.47;;
20535;SDS011;10426;49.420;8.390;2022-08-19T07:16:56;7.55;;;6.85;;
20535;SDS011;10426;49.420;8.390;2022-08-19T07:19:24;7.60;;;6.85;;
20535;SDS011;10426;49.420;8.390;2022-08-19T07:21:54;7.05;;;6.45;;
20535;SDS011;10426;49.420;8.390;2022-08-19T07:24:21;7.17;;;6.50;;
20535;SDS011;10426;49.420;8.390;2022-08-19T07:26:49;8.00;;;7.10;;
20535;SDS011;10426;49.420;8.390;2022-08-19T07:29:17;7.20;;;6.50;;
20535;SDS011;10426;49.420;8.390;2022-08-19T07:31:44;7.03;;;6.33;;
20535;SDS011;10426;49.420;8.390;2022-08-19T07:34:11;7.30;;;6.65;;
20535;SDS011;10426;49.420;8.390;2022-08-19T07:36:40;7.00;;;6.40;;
20535;SDS011;10426;49.420;8.390;2022-08-19T07:39:09;6.93;;;6.32;;
20535;SDS011;10426;49.420;8.390;2022-08-19T07:41:36;6.70;;;6.00;;
20535;SDS011;10426;49.420;8.390;2022-08-19T07:44:04;6.40;;;5.80;;
20535;SDS011;10426;49.420;8.390;2022-08-19T07:46:32;8.18;;;6.22;;
20535;SDS011;10426;49.420;8.390;2022-08-19T07:48:59;6.38;;;5.88;;
20535;SDS011;10426;49.420;8.390;2022-08-19T07:51:27;6.40;;;5.80;;
20535;SDS011;10426;49.420;8.390;2022-08-19T07:53:54;5.80;;;5.30;;
20535;SDS011;10426;49.420;8.390;2022-08-19T07:56:22;6.03;;;5.20;;
20535;SDS011;10426;49.420;8.390;2022-08-19T07:58:49;6.13;;;5.65;;
20535;SDS011;10426;49.420;8.390;2022-08-19T08:01:17;7.30;;;5.65;;
20535;SDS011;10426;49.420;8.390;2022-08-19T08:03:44;6.25;;;5.60;;
20535;SDS011;10426;49.420;8.390;2022-08-19T08:06:28;5.80;;;5.30;;
20535;SDS011;10426;49.420;8.390;2022-08-19T08:09:14;6.82;;;5.97;;
20535;SDS011;10426;49.420;8.390;2022-08-19T08:11:50;6.30;;;5.72;;
20535;SDS011;10426;49.420;8.390;2022-08-19T08:14:19;5.80;;;5.30;;
20535;SDS011;10426;49.420;8.390;2022-08-19T08:16:46;6.65;;;5.57;;
20535;SDS011;10426;49.420;8.390;2022-08-19T08:19:15;6.57;;;5.67;;
20535;SDS011;10426;49.420;8.390;2022-08-19T08:21:42;5.85;;;5.35;;
20535;SDS011;10426;49.420;8.390;2022-08-19T08:24:09;5.47;;;5.07;;
20535;SDS011;10426;49.420;8.390;2022-08-19T08:26:36;5.70;;;4.90;;
20535;SDS011;10426;49.420;8.390;2022-08-19T08:29:04;4.88;;;4.47;;
20535;SDS011;10426;49.420;8.390;2022-08-19T08:31:33;7.03;;;4.50;;
20535;SDS011;10426;49.420;8.390;2022-08-19T08:34:00;5.65;;;4.80;;
20535;SDS011;10426;49.420;8.390;2022-08-19T08:36:26;5.20;;;4.80;;
20535;SDS011;10426;49.420;8.390;2022-08-19T08:38:53;4.93;;;4.53;;
20535;SDS011;10426;49.420;8.390;2022-08-19T08:41:22;5.68;;;5.18;;
20535;SDS011;10426;49.420;8.390;2022-08-19T08:43:53;5.55;;;5.05;;
20535;SDS011;10426;49.420;8.390;2022-08-19T08:46:22;5.97;;;5.13;;
20535;SDS011;10426;49.420;8.390;2022-08-19T08:48:53;5.50;;;5.00;;
20535;SDS011;10426;49.420;8.390;2022-08-19T08:51:22;5.13;;;4.63;;
20535;SDS011;10426;49.420;8.390;2022-08-19T08:53:51;6.72;;;4.85;;
20535;SDS011;10426;49.420;8.390;2022-08-19T08:56:18;5.43;;;4.93;;
20535;SDS011;10426;49.420;8.390;2022-08-19T08:58:48;5.20;;;4.80;;
20535;SDS011;10426;49.420;8.390;2022-08-19T09:01:17;7.63;;;5.18;;
20535;SDS011;10426;49.420;8.390;2022-08-19T09:03:45;4.85;;;4.43;;
20535;SDS011;10426;49.420;8.390;2022-08-19T09:06:14;6.40;;;5.22;;
20535;SDS011;10426;49.420;8.390;2022-08-19T09:08:45;6.05;;;5.10;;
20535;SDS011;10426;49.420;8.390;2022-08-19T09:11:15;6.80;;;5.28;;
20535;SDS011;10426;49.420;8.390;2022-08-19T09:13:44;6.18;;;4.45;;
20535;SDS011;10426;49.420;8.390;2022-08-19T09:16:17;5.90;;;4.50;;
20535;SDS011;10426;49.420;8.390;2022-08-19T09:18:48;5.78;;;4.70;;
20535;SDS011;10426;49.420;8.390;2022-08-19T09:21:18;7.13;;;4.90;;
20535;SDS011;10426;49.420;8.390;2022-08-19T09:23:45;5.63;;;5.13;;
20535;SDS011;10426;49.420;8.390;2022-08-19T09:26:13;4.90;;;4.50;;
20535;SDS011;10426;49.420;8.390;2022-08-19T09:28:40;4.93;;;4.43;;
20535;SDS011;10426;49.420;8.390;2022-08-19T09:31:08;6.47;;;4.85;;
20535;SDS011;10426;49.420;8.390;2022-08-19T09:33:35;5.15;;;4.75;;
20535;SDS011;10426;49.420;8.390;2022-08-19T09:36:05;8.20;;;4.57;;
20535;SDS011;10426;49.420;8.390;2022-08-19T09:38:32;4.93;;;4.53;;
20535;SDS011;10426;49.420;8.390;2022-08-19T09:41:02;5.37;;;4.87;;
20535;SDS011;10426;49.420;8.390;2022-08-19T09:43:30;5.00;;;4.50;;
20535;SDS011;10426;49.420;8.390;2022-08-19T09:45:56;5.55;;;4.90;;
20535;SDS011;10426;49.420;8.390;2022-08-19T09:48:23;5.00;;;4.60;;
20535;SDS011;10426;49.420;8.390;2022-08-19T09:50:50;4.95;;;4.55;;
20535;SDS011;10426;49.420;8.390;2022-08-19T09:53:18;6.13;;;5.45;;
20535;SDS011;10426;49.420;8.390;2022-08-19T09:55:47;5.50;;;5.00;;
20535;SDS011;10426;49.420;8.390;2022-08-19T09:58:14;6.22;;;5.35;;
20535;SDS011;10426;49.420;8.390;2022-08-19T10:00:41;5.68;;;4.82;;
20535;SDS011;10426;49.420;8.390;2022-08-19T10:03:07;5.82;;;5.32;;
20535;SDS011;10426;49.420;8.390;2022-08-19T10:05:34;5.63;;;5.20;;
20535;SDS011;10426;49.420;8.390;2022-08-19T10:08:16;5.30;;;4.80;;
20535;SDS011;10426;49.420;8.390;2022-08-19T10:10:45;6.47;;;5.07;;
20535;SDS011;10426;49.420;8.390;2022-08-19T10:13:13;5.57;;;4.28;;
20535;SDS011;10426;49.420;8.390;2022-08-19T10:15:40;5.32;;;4.82;;
20535;SDS011;10426;49.420;8.390;2022-08-19T10:18:06;5.55;;;4.55;;
20535;SDS011;10426;49.420;8.390;2022-08-19T10:20:33;5.50;;;5.00;;
20535;SDS011;10426;49.420;8.390;2022-08-19T10:23:00;5.22;;;4.82;;
20535;SDS011;10426;49.420;8.390;2022-08-19T10:25:27;5.15;;;4.75;;
20535;SDS011;10426;49.420;8.390;2022-08-19T10:27:55;4.65;;;4.25;;
20535;SDS011;10426;49.420;8.390;2022-08-19T10:30:22;5.68;;;5.18;;
20535;SDS011;10426;49.420;8.390;2022-08-19T10:32:48;5.97;;;5.47;;
20535;SDS011;10426;49.420;8.390;2022-08-19T10:35:15;6.70;;;6.10;;
20535;SDS011;10426;49.420;8.390;2022-08-19T10:37:42;5.97;;;5.33;;
20535;SDS011;10426;49.420;8.390;2022-08-19T10:40:09;5.60;;;5.00;;
20535;SDS011;10426;49.420;8.390;2022-08-19T10:42:37;4.60;;;4.30;;
20535;SDS011;10426;49.420;8.390;2022-08-19T10:45:06;5.07;;;4.75;;
20535;SDS011;10426;49.420;8.390;2022-08-19T10:47:35;5.50;;;5.00;;
20535;SDS011;10426;49.420;8.390;2022-08-19T10:50:02;5.60;;;5.10;;
20535;SDS011;10426;49.420;8.390;2022-08-19T10:52:47;5.10;;;4.70;;
20535;SDS011;10426;49.420;8.390;2022-08-19T10:55:14;5.00;;;4.50;;
20535;SDS011;10426;49.420;8.390;2022-08-19T10:57:58;4.47;;;4.10;;
20535;SDS011;10426;49.420;8.390;2022-08-19T11:00:26;4.72;;;4.43;;
20535;SDS011;10426;49.420;8.390;2022-08-19T11:02:53;5.07;;;4.10;;
20535;SDS011;10426;49.420;8.390;2022-08-19T11:05:19;5.25;;;4.82;;
20535;SDS011;10426;49.420;8.390;2022-08-19T11:07:47;5.10;;;4.70;;
20535;SDS011;10426;49.420;8.390;2022-08-19T11:10:16;5.07;;;4.78;;
20535;SDS011;10426;49.420;8.390;2022-08-19T11:12:44;5.95;;;5.35;;
20535;SDS011;10426;49.420;8.390;2022-08-19T11:15:12;6.03;;;5.38;;
20535;SDS011;10426;49.420;8.390;2022-08-19T11:17:40;5.90;;;5.40;;
20535;SDS011;10426;49.420;8.390;2022-08-19T11:20:09;6.72;;;5.13;;
20535;SDS011;10426;49.420;8.390;2022-08-19T11:22:36;5.60;;;5.15;;
20535;SDS011;10426;49.420;8.390;2022-08-19T11:25:03;5.53;;;5.03;;
20535;SDS011;10426;49.420;8.390;2022-08-19T11:27:30;4.80;;;4.50;;
20535;SDS011;10426;49.420;8.390;2022-08-19T11:29:56;4.43;;;4.13;;
20535;SDS011;10426;49.420;8.390;2022-08-19T11:32:23;4.10;;;3.90;;
20535;SDS011;10426;49.420;8.390;2022-08-19T11:34:51;5.80;;;4.00;;
20535;SDS011;10426;49.420;8.390;2022-08-19T11:37:17;4.00;;;3.70;;
20535;SDS011;10426;49.420;8.390;2022-08-19T11:39:45;3.83;;;3.40;;
20535;SDS011;10426;49.420;8.390;2022-08-19T11:42:11;3.40;;;3.20;;
20535;SDS011;10426;49.420;8.390;2022-08-19T11:44:52;3.40;;;3.20;;
20535;SDS011;10426;49.420;8.390;2022-08-19T11:47:18;3.90;;;3.60;;
20535;SDS011;10426;49.420;8.390;2022-08-19T11:49:45;3.75;;;3.55;;
20535;SDS011;10426;49.420;8.390;2022-08-19T11:52:13;3.55;;;3.35;;
20535;SDS011;10426;49.420;8.390;2022-08-19T11:54:40;5.78;;;3.20;;
20535;SDS011;10426;49.420;8.390;2022-08-19T11:57:07;3.10;;;2.90;;
20535;SDS011;10426;49.420;8.390;2022-08-19T11:59:33;3.47;;;3.00;;
20535;SDS011;10426;49.420;8.390;2022-08-19T12:02:00;3.55;;;3.25;;
20535;SDS011;10426;49.420;8.390;2022-08-19T12:04:26;3.28;;;3.00;;
20535;SDS011;10426;49.420;8.390;2022-08-19T12:06:53;3.00;;;2.80;;
20535;SDS011;10426;49.420;8.390;2022-08-19T12:09:21;3.58;;;3.28;;
20535;SDS011;10426;49.420;8.390;2022-08-19T12:11:48;3.50;;;3.30;;
20535;SDS011;10426;49.420;8.390;2022-08-19T12:14:16;3.33;;;3.20;;
20535;SDS011;10426;49.420;8.390;2022-08-19T12:16:45;4.00;;;3.40;;
20535;SDS011;10426;49.420;8.390;2022-08-19T12:19:12;3.42;;;3.22;;
20535;SDS011;10426;49.420;8.390;2022-08-19T12:21:39;3.70;;;3.40;;
20535;SDS011;10426;49.420;8.390;2022-08-19T12:24:06;3.50;;;3.20;;
20535;SDS011;10426;49.420;8.390;2022-08-19T12:26:34;3.53;;;3.22;;
20535;SDS011;10426;49.420;8.390;2022-08-19T12:29:02;3.13;;;2.90;;
20535;SDS011;10426;49.420;8.390;2022-08-19T12:31:29;3.33;;;3.03;;
20535;SDS011;10426;49.420;8.390;2022-08-19T12:33:57;3.50;;;3.20;;
20535;SDS011;10426;49.420;8.390;2022-08-19T12:36:24;3.55;;;3.35;;
20535;SDS011;10426;49.420;8.390;2022-08-19T12:38:51;3.20;;;3.00;;
20535;SDS011;10426;49.420;8.390;2022-08-19T12:41:19;3.33;;;3.13;;
20535;SDS011;10426;49.420;8.390;2022-08-19T12:43:49;4.32;;;3.00;;
20535;SDS011;10426;49.420;8.390;2022-08-19T12:46:16;3.40;;;3.20;;
20535;SDS011;10426;49.420;8.390;2022-08-19T12:48:43;3.03;;;2.83;;
20535;SDS011;10426;49.420;8.390;2022-08-19T12:51:12;2.83;;;2.70;;
20535;SDS011;10426;49.420;8.390;2022-08-19T12:53:39;3.13;;;2.95;;
20535;SDS011;10426;49.420;8.390;2022-08-19T12:56:06;3.00;;;2.90;;
20535;SDS011;10426;49.420;8.390;2022-08-19T12:58:33;3.10;;;2.90;;
20535;SDS011;10426;49.420;8.390;2022-08-19T13:01:06;3.67;;;2.72;;
20535;SDS011;10426;49.420;8.390;2022-08-19T13:03:33;2.80;;;2.70;;
20535;SDS011;10426;49.420;8.390;2022-08-19T13:06:00;3.05;;;2.80;;
20535;SDS011;10426;49.420;8.390;2022-08-19T13:08:27;3.10;;;2.90;;
20535;SDS011;10426;49.420;8.390;2022-08-19T13:10:53;2.92;;;2.72;;
20535;SDS011;10426;49.420;8.390;2022-08-19T13:13:20;2.80;;;2.60;;
20535;SDS011;10426;49.420;8.390;2022-08-19T13:15:47;2.67;;;2.58;;
20535;SDS011;10426;49.420;8.390;2022-08-19T13:18:15;2.80;;;2.60;;
20535;SDS011;10426;49.420;8.390;2022-08-19T13:20:42;2.63;;;2.53;;
20535;SDS011;10426;49.420;8.390;2022-08-19T13:23:09;3.00;;;2.70;;
20535;SDS011;10426;49.420;8.390;2022-08-19T13:25:35;2.90;;;2.60;;
20535;SDS011;10426;49.420;8.390;2022-08-19T13:28:02;3.08;;;2.88;;
20535;SDS011;10426;49.420;8.390;2022-08-19T13:30:31;2.87;;;2.77;;
20535;SDS011;10426;49.420;8.390;2022-08-19T13:33:20;3.10;;;2.80;;
20535;SDS011;10426;49.420;8.390;2022-08-19T13:35:47;2.53;;;2.42;;
20535;SDS011;10426;49.420;8.390;2022-08-19T13:38:15;2.65;;;2.55;;
20535;SDS011;10426;49.420;8.390;2022-08-19T13:40:42;2.80;;;2.60;;
20535;SDS011;10426;49.420;8.390;2022-08-19T13:43:09;2.63;;;2.53;;
20535;SDS011;10426;49.420;8.390;2022-08-19T13:45:36;2.72;;;2.53;;
20535;SDS011;10426;49.420;8.390;2022-08-19T13:48:03;2.80;;;2.60;;
20535;SDS011;10426;49.420;8.390;2022-08-19T13:50:33;2.67;;;2.58;;
20535;SDS011;10426;49.420;8.390;2022-08-19T13:53:00;2.83;;;2.63;;
20535;SDS011;10426;49.420;8.390;2022-08-19T13:55:27;3.75;;;2.50;;
20535;SDS011;10426;49.420;8.390;2022-08-19T13:57:55;2.47;;;2.28;;
20535;SDS011;10426;49.420;8.390;2022-08-19T14:00:23;2.53;;;2.42;;
20535;SDS011;10426;49.420;8.390;2022-08-19T14:02:52;3.28;;;2.40;;
20535;SDS011;10426;49.420;8.390;2022-08-19T14:05:19;3.22;;;2.60;;
20535;SDS011;10426;49.420;8.390;2022-08-19T14:07:47;2.78;;;2.58;;
20535;SDS011;10426;49.420;8.390;2022-08-19T14:10:16;2.70;;;2.50;;
20535;SDS011;10426;49.420;8.390;2022-08-19T14:12:43;4.10;;;2.60;;
20535;SDS011;10426;49.420;8.390;2022-08-19T14:15:10;3.05;;;2.47;;
20535;SDS011;10426;49.420;8.390;2022-08-19T14:17:37;5.22;;;2.50;;
20535;SDS011;10426;49.420;8.390;2022-08-19T14:20:06;2.90;;;2.33;;
20535;SDS011;10426;49.420;8.390;2022-08-19T14:22:34;4.47;;;2.60;;
20535;SDS011;10426;49.420;8.390;2022-08-19T14:25:02;2.97;;;2.28;;
20535;SDS011;10426;49.420;8.390;2022-08-19T14:27:29;2.60;;;2.40;;
20535;SDS011;10426;49.420;8.390;2022-08-19T14:29:56;7.15;;;2.35;;
20535;SDS011;10426;49.420;8.390;2022-08-19T14:32:22;3.38;;;2.42;;
20535;SDS011;10426;49.420;8.390;2022-08-19T14:34:50;2.60;;;2.40;;
20535;SDS011;10426;49.420;8.390;2022-08-19T14:37:16;5.00;;;2.30;;
20535;SDS011;10426;49.420;8.390;2022-08-19T14:39:44;3.75;;;2.55;;